Time;durP1;ratioP1;P1;durP2;ratioP2;P2;SDS_P1;SDS_P2;PMS_P1;PMS_P2;Temp;Humidity;BMP_temperature;BMP_pressure;BME280_temperature;BME280_humidity;BME280_pressure;Samples;Min_cycle;Max_cycle;Signal;HPM_P1;HPM_P2
2022/05/14 04:02:28;;;;;;;6.50;4.90;;;11.80;99.90;;;;;;5043876;23;20236;-69
2022/05/14 04:04:55;;;;;;;6.60;5.60;;;11.90;99.90;;;;;;4971446;28;20204;-69
2022/05/14 04:07:21;;;;;;;4.93;4.50;;;11.90;99.90;;;;;;4971500;28;20680;-69
2022/05/14 04:09:48;;;;;;;6.68;5.32;;;11.90;99.90;;;;;;4970534;28;20256;-68
2022/05/14 04:12:15;;;;;;;10.43;4.80;;;11.90;99.90;;;;;;4971179;28;20673;-69
2022/05/14 04:14:41;;;;;;;5.13;4.63;;;12.00;99.90;;;;;;4972003;28;20216;-68
2022/05/14 04:17:08;;;;;;;4.80;4.40;;;12.00;99.90;;;;;;4971429;28;20212;-68
2022/05/14 04:19:36;;;;;;;5.75;5.05;;;12.00;99.90;;;;;;4970940;28;20208;-68
2022/05/14 04:22:03;;;;;;;4.88;4.57;;;12.00;99.90;;;;;;4971243;28;20224;-69
2022/05/14 04:24:30;;;;;;;4.50;4.30;;;12.10;99.90;;;;;;4971013;28;20215;-68
2022/05/14 04:26:57;;;;;;;5.35;4.88;;;12.20;99.90;;;;;;4971202;28;20215;-68
2022/05/14 04:29:24;;;;;;;6.88;5.03;;;12.30;99.90;;;;;;4971353;28;20577;-69
2022/05/14 04:31:51;;;;;;;5.13;4.80;;;12.50;99.90;;;;;;4970690;28;20645;-68
2022/05/14 04:34:18;;;;;;;9.17;5.50;;;12.90;99.90;;;;;;4971350;28;20550;-68
2022/05/14 04:36:46;;;;;;;4.00;3.60;;;13.30;99.90;;;;;;4970974;28;20463;-69
2022/05/14 04:39:13;;;;;;;4.67;4.27;;;13.40;99.90;;;;;;4971255;28;20554;-69
2022/05/14 04:41:40;;;;;;;5.63;4.50;;;13.40;99.90;;;;;;4970872;28;20483;-69
2022/05/14 04:44:06;;;;;;;6.03;4.90;;;13.30;99.90;;;;;;4971279;28;20886;-69
2022/05/14 04:46:36;;;;;;;9.67;4.87;;;13.30;99.90;;;;;;4971525;28;20564;-69
2022/05/14 04:49:04;;;;;;;6.87;4.30;;;13.10;99.90;;;;;;4985061;28;20550;-68
2022/05/14 04:51:30;;;;;;;5.73;4.10;;;13.10;99.90;;;;;;4990255;28;20541;-70
2022/05/14 04:53:58;;;;;;;9.53;4.90;;;13.00;99.90;;;;;;4990280;28;20463;-69
2022/05/14 04:56:25;;;;;;;4.60;4.30;;;13.00;99.90;;;;;;4990070;28;20513;-70
2022/05/14 04:58:52;;;;;;;5.57;4.20;;;13.00;99.90;;;;;;4990830;28;20513;-69
2022/05/14 05:01:18;;;;;;;6.43;4.83;;;13.00;99.90;;;;;;4989910;28;20529;-70
2022/05/14 05:03:44;;;;;;;8.93;5.33;;;13.00;99.90;;;;;;4991839;28;20528;-70
2022/05/14 05:06:14;;;;;;;9.57;5.67;;;13.00;99.90;;;;;;4994040;28;20471;-69
2022/05/14 05:08:42;;;;;;;6.63;5.27;;;13.00;99.90;;;;;;4993860;28;20215;-70
2022/05/14 05:11:10;;;;;;;10.13;6.20;;;13.00;99.90;;;;;;4992984;28;20592;-69
2022/05/14 05:13:37;;;;;;;9.77;4.50;;;13.00;99.90;;;;;;4993913;28;20459;-69
2022/05/14 05:16:05;;;;;;;9.30;4.93;;;13.00;99.90;;;;;;4993916;28;20462;-70
2022/05/14 05:18:32;;;;;;;7.33;4.40;;;13.10;99.90;;;;;;4993739;28;20463;-70
2022/05/14 05:20:59;;;;;;;12.63;5.90;;;13.10;99.90;;;;;;4993254;28;20516;-70
2022/05/14 05:23:27;;;;;;;12.50;5.27;;;13.10;99.90;;;;;;4994022;28;20459;-69
2022/05/14 05:25:54;;;;;;;7.30;4.30;;;13.20;99.90;;;;;;4993059;28;20463;-69
2022/05/14 05:28:23;;;;;;;7.07;4.93;;;13.20;99.90;;;;;;4994020;28;20471;-69
2022/05/14 05:30:50;;;;;;;4.77;4.37;;;13.20;99.90;;;;;;4993179;28;20850;-69
2022/05/14 05:33:20;;;;;;;5.60;4.90;;;13.30;99.90;;;;;;4993761;28;20845;-69
2022/05/14 05:35:47;;;;;;;15.40;5.53;;;13.30;99.90;;;;;;4993508;28;20506;-69
2022/05/14 05:38:14;;;;;;;9.50;4.43;;;13.20;99.90;;;;;;4981056;28;20467;-69
2022/05/14 05:40:41;;;;;;;11.03;4.97;;;13.30;99.90;;;;;;4983904;28;20856;-68
2022/05/14 05:43:09;;;;;;;5.93;5.43;;;13.30;99.90;;;;;;4993364;28;20462;-69
2022/05/14 05:45:38;;;;;;;5.57;5.07;;;13.30;99.90;;;;;;4993259;28;20602;-69
2022/05/14 05:48:06;;;;;;;6.30;5.10;;;13.30;99.90;;;;;;4993214;28;20986;-68
2022/05/14 05:50:34;;;;;;;5.70;4.50;;;13.40;99.90;;;;;;4992943;28;20483;-68
2022/05/14 05:53:00;;;;;;;8.10;4.90;;;13.40;99.90;;;;;;4993371;28;20495;-68
2022/05/14 05:58:11;;;;;;;13.23;7.10;;;13.70;99.90;;;;;;4993357;28;20426;-68
2022/05/14 06:00:41;;;;;;;6.13;4.73;;;13.90;99.90;;;;;;4992654;28;20494;-68
2022/05/14 06:03:08;;;;;;;9.63;5.03;;;14.00;99.90;;;;;;4993154;28;20462;-68
2022/05/14 06:05:34;;;;;;;6.87;4.80;;;14.10;99.90;;;;;;4993001;28;20467;-68
2022/05/14 06:08:01;;;;;;;5.93;4.93;;;14.20;99.90;;;;;;4993097;28;20585;-67
2022/05/14 06:10:28;;;;;;;8.03;4.70;;;14.20;99.90;;;;;;4991404;28;20466;-68
2022/05/14 06:12:58;;;;;;;9.60;4.90;;;14.30;99.90;;;;;;4992539;28;21140;-68
2022/05/14 06:15:25;;;;;;;7.73;5.07;;;14.30;99.90;;;;;;4992581;28;20570;-70
2022/05/14 06:17:53;;;;;;;11.10;4.90;;;14.40;99.90;;;;;;4992712;28;20463;-67
2022/05/14 06:20:20;;;;;;;6.43;5.13;;;14.60;99.90;;;;;;4991898;28;20828;-68
2022/05/14 06:22:46;;;;;;;4.47;3.87;;;14.70;99.90;;;;;;4992656;28;20524;-69
2022/05/14 06:25:14;;;;;;;9.50;5.57;;;14.80;99.90;;;;;;4991487;28;20467;-69
2022/05/14 06:27:40;;;;;;;10.27;4.93;;;14.90;99.90;;;;;;4983565;28;20475;-70
2022/05/14 06:30:09;;;;;;;12.97;5.03;;;15.10;99.90;;;;;;4991585;28;20467;-68
2022/05/14 06:32:36;;;;;;;6.57;5.53;;;15.10;99.90;;;;;;4992521;28;20533;-69
2022/05/14 06:35:05;;;;;;;9.07;4.57;;;15.20;99.90;;;;;;4992551;28;20565;-69
2022/05/14 06:37:31;;;;;;;9.07;4.67;;;15.40;99.90;;;;;;4993239;28;20525;-68
2022/05/14 06:39:58;;;;;;;5.20;3.97;;;15.50;99.90;;;;;;4992092;28;20537;-69
2022/05/14 06:42:25;;;;;;;10.30;4.83;;;15.50;99.90;;;;;;4993174;28;20550;-69
2022/05/14 06:44:52;;;;;;;7.07;4.37;;;15.60;99.90;;;;;;4992250;28;20521;-67
2022/05/14 06:47:18;;;;;;;9.23;4.23;;;15.80;99.90;;;;;;4992281;28;20521;-68
2022/05/14 06:49:45;;;;;;;6.53;4.20;;;15.90;99.90;;;;;;4991120;28;20474;-69
2022/05/14 06:52:16;;;;;;;6.67;4.17;;;16.10;99.90;;;;;;4991737;28;20903;-70
2022/05/14 06:54:45;;;;;;;6.97;4.50;;;16.30;99.90;;;;;;4991758;28;20803;-69
2022/05/14 06:57:13;;;;;;;7.07;4.67;;;16.40;99.90;;;;;;4991802;28;20562;-68
2022/05/14 06:59:40;;;;;;;6.70;4.20;;;16.50;99.90;;;;;;4980339;28;20468;-69
2022/05/14 07:02:07;;;;;;;8.50;3.77;;;16.60;99.90;;;;;;4971831;28;21000;-69
2022/05/14 07:07:19;;;;;;;7.13;3.90;;;16.80;99.90;;;;;;4972492;28;20454;-68
2022/05/14 07:09:49;;;;;;;8.83;4.40;;;17.10;99.90;;;;;;4971233;28;20463;-69
2022/05/14 07:12:16;;;;;;;10.20;4.20;;;17.30;99.90;;;;;;4972214;28;20492;-70
2022/05/14 07:14:43;;;;;;;9.40;3.90;;;17.70;99.90;;;;;;4972047;28;20873;-70
2022/05/14 07:17:11;;;;;;;6.97;4.07;;;18.50;99.90;;;;;;4971827;28;20471;-68
2022/05/14 07:19:37;;;;;;;5.50;3.73;;;19.10;99.90;;;;;;4971878;28;20531;-68
2022/05/14 07:22:05;;;;;;;7.50;3.87;;;19.00;99.90;;;;;;4972189;28;20483;-69
2022/05/14 07:24:34;;;;;;;6.70;4.30;;;18.80;99.90;;;;;;4971697;28;20470;-69
2022/05/14 07:27:03;;;;;;;4.70;4.13;;;18.80;99.90;;;;;;4971658;28;20467;-68
2022/05/14 07:29:31;;;;;;;6.37;4.43;;;18.90;99.90;;;;;;4972099;28;20846;-67
2022/05/14 07:31:58;;;;;;;6.57;4.37;;;19.00;99.90;;;;;;4971777;28;20479;-68
2022/05/14 07:34:25;;;;;;;5.40;3.97;;;19.20;99.90;;;;;;4972215;28;20515;-69
2022/05/14 07:36:56;;;;;;;7.47;3.50;;;19.20;99.90;;;;;;4971779;28;20980;-69
2022/05/14 07:39:26;;;;;;;8.63;4.33;;;19.30;99.90;;;;;;4971454;28;20467;-69
2022/05/14 07:41:59;;;;;;;5.97;4.67;;;19.50;99.90;;;;;;4970728;28;20488;-69
2022/05/14 07:44:30;;;;;;;8.07;4.33;;;20.20;99.90;;;;;;4972102;28;20541;-68
2022/05/14 07:46:58;;;;;;;7.70;4.73;;;20.70;99.90;;;;;;4971898;28;20472;-69
2022/05/14 07:49:26;;;;;;;7.00;3.47;;;21.10;99.90;;;;;;4978457;28;20470;-69
2022/05/14 07:51:55;;;;;;;6.77;4.07;;;21.00;99.90;;;;;;4990364;28;20486;-69
2022/05/14 07:54:22;;;;;;;4.87;3.30;;;21.10;99.90;;;;;;4991056;28;20978;-68
2022/05/14 07:56:49;;;;;;;9.10;4.67;;;21.20;99.90;;;;;;4990690;28;20474;-68
2022/05/14 07:59:17;;;;;;;6.43;3.43;;;21.20;99.90;;;;;;4991289;28;20626;-69
2022/05/14 08:01:44;;;;;;;4.43;3.43;;;20.90;99.90;;;;;;4990542;28;20503;-69
2022/05/14 08:04:11;;;;;;;8.70;3.80;;;20.70;99.90;;;;;;4991249;28;20470;-69
2022/05/14 08:06:38;;;;;;;4.17;3.60;;;20.50;99.90;;;;;;4991420;28;20467;-69
2022/05/14 08:09:06;;;;;;;8.20;4.30;;;20.20;99.90;;;;;;4990631;28;20612;-68
2022/05/14 08:11:32;;;;;;;7.33;4.30;;;20.10;99.90;;;;;;4989896;28;20905;-69
2022/05/14 08:13:59;;;;;;;6.87;3.90;;;19.80;99.90;;;;;;4991089;28;20537;-69
2022/05/14 08:16:28;;;;;;;11.60;4.67;;;19.40;99.90;;;;;;4991197;28;20557;-69
2022/05/14 08:18:55;;;;;;;9.73;4.67;;;19.30;99.90;;;;;;4990841;28;20525;-69
2022/05/14 08:26:52;;;;;;;10.33;4.40;;;18.90;99.90;;;;;;4991299;28;20542;-70
2022/05/14 08:29:20;;;;;;;12.10;3.67;;;19.10;99.90;;;;;;5000823;28;20474;-69
2022/05/14 08:31:49;;;;;;;8.70;4.10;;;19.20;99.90;;;;;;4999289;28;20486;-70
2022/05/14 08:34:16;;;;;;;7.40;4.10;;;19.40;99.90;;;;;;5000109;28;20487;-69
2022/05/14 08:36:42;;;;;;;6.90;4.90;;;19.30;99.90;;;;;;5001778;28;20525;-70
2022/05/14 08:39:11;;;;;;;8.67;3.90;;;19.20;99.90;;;;;;5004728;28;20506;-68
2022/05/14 08:41:41;;;;;;;6.20;3.50;;;19.00;99.90;;;;;;5003277;28;20483;-68
2022/05/14 08:44:11;;;;;;;5.83;4.37;;;19.10;99.90;;;;;;5004685;28;20462;-71
2022/05/14 08:46:40;;;;;;;9.57;3.50;;;19.10;99.90;;;;;;5006134;28;20563;-69
2022/05/14 08:49:15;;;;;;;7.10;3.30;;;19.20;99.90;;;;;;5000874;28;20550;-68
2022/05/14 08:51:46;;;;;;;8.27;3.70;;;19.10;99.90;;;;;;4994384;28;20900;-67
2022/05/14 08:54:12;;;;;;;4.93;3.33;;;19.10;99.90;;;;;;4994960;28;20509;-67
2022/05/14 08:56:45;;;;;;;5.30;3.43;;;19.00;99.90;;;;;;4995614;28;20463;-68
2022/05/14 08:59:43;;;;;;;5.13;2.67;;;19.00;99.90;;;;;;4980375;28;20500;-68
2022/05/14 09:02:16;;;;;;;3.17;2.87;;;19.00;99.90;;;;;;4978479;28;20495;-67
2022/05/14 09:04:44;;;;;;;3.20;2.47;;;19.10;99.90;;;;;;4974721;28;20475;-69
2022/05/14 09:07:12;;;;;;;8.27;3.33;;;19.10;99.90;;;;;;4974534;28;20530;-69
2022/05/14 09:09:48;;;;;;;10.00;3.40;;;19.00;99.90;;;;;;4973635;28;20967;-69
2022/05/14 09:12:18;;;;;;;9.13;3.20;;;19.00;99.90;;;;;;4974728;28;20809;-70
2022/05/14 09:14:45;;;;;;;4.83;3.17;;;18.90;99.90;;;;;;4974587;28;20495;-68
2022/05/14 09:17:15;;;;;;;4.97;3.40;;;18.90;99.90;;;;;;4974411;28;20471;-69
2022/05/14 09:19:45;;;;;;;4.27;2.50;;;19.00;99.90;;;;;;4974231;28;20471;-69
2022/05/14 09:22:18;;;;;;;4.80;3.17;;;19.10;99.90;;;;;;4974573;28;20549;-69
2022/05/14 09:24:49;;;;;;;7.10;3.40;;;19.10;99.90;;;;;;4974464;28;20507;-69
2022/05/14 09:27:24;;;;;;;6.47;2.97;;;19.10;99.90;;;;;;4974982;28;20468;-69
2022/05/14 09:29:55;;;;;;;10.30;3.40;;;19.30;99.90;;;;;;4973718;28;20554;-69
2022/05/14 09:32:32;;;;;;;8.63;3.20;;;19.30;99.90;;;;;;4974373;28;20993;-68
2022/05/14 09:35:17;;;;;;;5.20;3.27;;;19.40;99.90;;;;;;4974257;28;20471;-70
2022/05/14 09:37:44;;;;;;;2.93;2.33;;;19.40;99.90;;;;;;4972813;28;20468;-68
2022/05/14 09:40:19;;;;;;;4.10;2.50;;;19.50;99.90;;;;;;4972507;28;20474;-69
2022/05/14 09:42:49;;;;;;;4.00;2.70;;;19.40;99.90;;;;;;4974039;28;20956;-69
2022/05/14 09:45:30;;;;;;;4.13;2.50;;;19.30;99.90;;;;;;4973516;28;20995;-69
2022/05/14 09:47:57;;;;;;;4.43;2.43;;;19.30;99.90;;;;;;4970176;28;20828;-69
2022/05/14 09:50:31;;;;;;;4.77;2.60;;;19.20;99.90;;;;;;4985968;28;20514;-69
2022/05/14 09:53:01;;;;;;;6.63;2.93;;;19.30;99.90;;;;;;4973553;28;20479;-69
2022/05/14 09:55:49;;;;;;;5.80;2.80;;;19.40;99.90;;;;;;4972676;28;20542;-69
2022/05/14 09:58:25;;;;;;;3.70;2.67;;;19.30;99.90;;;;;;4957982;28;20614;-70
2022/05/14 10:00:58;;;;;;;8.47;2.83;;;19.20;99.90;;;;;;4973236;28;20598;-69
2022/05/14 10:03:42;;;;;;;2.40;2.20;;;19.20;99.90;;;;;;4974036;28;20491;-68
2022/05/14 10:06:24;;;;;;;4.67;2.40;;;19.20;99.90;;;;;;4973913;28;20455;-68
2022/05/14 10:09:02;;;;;;;3.67;2.30;;;19.10;99.90;;;;;;4973810;28;20475;-67
2022/05/14 10:11:35;;;;;;;2.53;2.00;;;19.00;99.90;;;;;;4972808;28;20484;-69
2022/05/14 10:16:35;;;;;;;3.20;2.43;;;18.90;99.90;;;;;;4988729;23;21070;-70
2022/05/14 10:19:18;;;;;;;4.20;2.70;;;19.10;99.90;;;;;;4974050;28;20794;-70
2022/05/14 10:21:55;;;;;;;3.83;2.57;;;19.40;99.90;;;;;;4973063;28;20503;-70
2022/05/14 10:27:40;;;;;;;2.70;2.50;;;19.20;99.90;;;;;;4977251;28;20457;-71
2022/05/14 10:30:16;;;;;;;2.10;1.90;;;19.30;99.90;;;;;;4972836;28;20467;-70
2022/05/14 10:32:44;;;;;;;2.20;2.07;;;19.50;99.90;;;;;;4973521;28;20522;-71
2022/05/14 10:35:18;;;;;;;4.70;2.50;;;19.50;99.90;;;;;;4972861;28;20554;-71
2022/05/14 10:37:50;;;;;;;4.23;2.13;;;19.60;99.90;;;;;;4973755;28;20470;-71
2022/05/14 10:40:22;;;;;;;2.43;2.30;;;19.60;99.90;;;;;;4972515;28;20917;-72
2022/05/14 10:43:07;;;;;;;2.43;2.23;;;19.60;99.90;;;;;;4973377;28;20471;-71
2022/05/14 10:45:39;;;;;;;2.10;2.00;;;19.70;99.90;;;;;;4973179;28;20550;-70
2022/05/14 10:48:22;;;;;;;2.20;2.10;;;19.80;99.90;;;;;;4973387;28;20472;-71
2022/05/14 10:50:48;;;;;;;3.57;1.90;;;19.80;99.90;;;;;;4972615;28;20468;-71
2022/05/14 10:53:18;;;;;;;4.37;2.27;;;19.70;99.90;;;;;;4973037;28;20495;-71
2022/05/14 10:55:51;;;;;;;3.57;2.10;;;19.90;99.90;;;;;;4972175;28;20491;-71
2022/05/14 10:58:35;;;;;;;2.47;1.63;;;19.90;99.90;;;;;;4973279;28;20476;-71
2022/05/14 11:01:03;;;;;;;6.83;2.77;;;19.90;99.90;;;;;;4971609;28;20475;-71
2022/05/14 11:03:36;;;;;;;3.37;1.97;;;20.00;99.90;;;;;;4972910;28;20474;-71
2022/05/14 11:06:12;;;;;;;3.60;2.47;;;19.90;99.90;;;;;;4972817;28;20494;-71
2022/05/14 11:08:43;;;;;;;3.30;2.10;;;20.10;99.90;;;;;;4972317;28;20553;-72
2022/05/14 11:11:18;;;;;;;5.43;2.60;;;20.40;99.90;;;;;;4972373;28;20894;-71
2022/05/14 11:14:02;;;;;;;3.13;2.03;;;20.40;99.90;;;;;;4973271;28;20471;-72
2022/05/14 11:16:42;;;;;;;4.03;1.93;;;20.40;99.90;;;;;;4972154;28;20571;-71
2022/05/14 11:19:10;;;;;;;5.33;2.47;;;20.20;99.90;;;;;;4992463;28;20482;-72
2022/05/14 11:21:43;;;;;;;4.60;2.20;;;20.20;99.90;;;;;;4992416;28;20467;-71
2022/05/14 11:24:15;;;;;;;5.77;2.23;;;20.20;99.90;;;;;;4993018;28;20566;-72
2022/05/14 11:26:48;;;;;;;4.70;2.60;;;20.10;99.90;;;;;;4994352;28;20463;-71
2022/05/14 11:29:19;;;;;;;6.43;2.60;;;20.10;99.90;;;;;;5000855;28;20471;-72
2022/05/14 11:31:53;;;;;;;3.37;1.70;;;19.80;99.90;;;;;;4999960;28;20470;-72
2022/05/14 11:34:23;;;;;;;5.70;2.40;;;19.80;99.90;;;;;;5001148;28;20557;-72
2022/05/14 11:36:53;;;;;;;4.00;2.50;;;20.00;99.90;;;;;;5003372;28;20478;-72
2022/05/14 11:39:29;;;;;;;2.07;1.47;;;20.00;99.90;;;;;;5003622;28;20533;-72
2022/05/14 11:42:10;;;;;;;2.30;2.03;;;20.00;99.90;;;;;;5001707;28;20553;-73
2022/05/14 11:44:49;;;;;;;2.07;1.97;;;20.00;99.90;;;;;;4996995;28;20485;-72
2022/05/14 11:47:56;;;;;;;2.13;1.87;;;20.00;99.90;;;;;;4993215;28;21040;-72
2022/05/14 11:50:28;;;;;;;2.73;1.73;;;20.10;99.90;;;;;;4971057;28;20471;-72
2022/05/14 11:53:15;;;;;;;2.67;2.20;;;20.10;99.90;;;;;;4972709;28;20463;-72
2022/05/14 11:55:49;;;;;;;2.27;2.17;;;19.80;99.90;;;;;;4971350;28;20496;-73
2022/05/14 11:58:22;;;;;;;2.70;2.50;;;19.70;99.90;;;;;;4972291;28;20497;-72
2022/05/14 12:00:50;;;;;;;3.17;2.43;;;19.60;99.90;;;;;;4971524;28;20495;-71
2022/05/14 12:03:23;;;;;;;2.40;2.20;;;19.70;99.90;;;;;;4971665;28;21033;-73
2022/05/14 12:05:53;;;;;;;2.93;2.73;;;19.60;99.90;;;;;;4972108;28;20557;-72
2022/05/14 12:08:47;;;;;;;4.77;2.20;;;19.60;99.90;;;;;;4972322;28;20475;-72
2022/05/14 12:11:25;;;;;;;2.43;2.00;;;19.50;99.90;;;;;;4970977;28;20588;-72
2022/05/14 12:13:58;;;;;;;2.93;2.17;;;19.30;99.90;;;;;;4975507;28;20491;-72
2022/05/14 12:16:30;;;;;;;4.93;2.53;;;19.20;99.90;;;;;;4975854;28;20551;-70
2022/05/14 12:18:57;;;;;;;1.87;1.70;;;19.20;99.90;;;;;;4976063;28;20578;-72
2022/05/14 12:21:24;;;;;;;6.83;2.77;;;19.10;99.90;;;;;;4975047;28;20471;-71
2022/05/14 12:23:51;;;;;;;4.37;2.80;;;19.10;99.90;;;;;;4975374;28;20467;-72
2022/05/14 12:26:25;;;;;;;3.07;2.60;;;19.30;99.90;;;;;;4970962;28;20496;-72
2022/05/14 12:28:53;;;;;;;2.57;2.27;;;19.50;99.90;;;;;;4994690;28;20594;-72
2022/05/14 12:34:11;;;;;;;2.30;1.93;;;19.60;99.90;;;;;;4994798;28;20994;-72
2022/05/14 12:36:42;;;;;;;2.50;1.87;;;19.50;99.90;;;;;;4995088;28;20464;-72
2022/05/14 12:39:13;;;;;;;3.07;2.13;;;19.40;99.90;;;;;;4994819;28;20527;-72
2022/05/14 12:41:42;;;;;;;4.63;2.40;;;19.40;99.90;;;;;;4993834;28;20469;-72
2022/05/14 12:44:12;;;;;;;3.80;2.23;;;19.40;99.90;;;;;;4994682;28;20536;-72
2022/05/14 12:46:42;;;;;;;2.70;2.50;;;19.30;99.90;;;;;;4995684;28;20470;-72
2022/05/14 12:49:17;;;;;;;2.43;1.93;;;19.40;99.90;;;;;;4995094;28;20521;-72
2022/05/14 12:51:49;;;;;;;4.53;1.80;;;19.50;99.90;;;;;;4994461;28;20470;-72
2022/05/14 12:54:23;;;;;;;3.93;2.67;;;19.60;99.90;;;;;;4994048;28;20861;-72
2022/05/14 12:56:53;;;;;;;6.50;2.23;;;19.70;99.90;;;;;;4994140;28;20977;-72
2022/05/14 12:59:20;;;;;;;2.90;2.20;;;19.60;99.90;;;;;;4994798;28;20576;-72
2022/05/14 13:01:50;;;;;;;3.80;2.53;;;19.50;99.90;;;;;;4994290;28;20826;-71
2022/05/14 13:04:19;;;;;;;4.80;1.80;;;19.40;99.90;;;;;;4994568;28;20509;-72
2022/05/14 13:06:47;;;;;;;3.97;3.47;;;19.50;99.90;;;;;;4994594;28;20470;-72
2022/05/14 13:09:22;;;;;;;6.57;4.30;;;19.40;99.90;;;;;;4993888;28;20463;-72
2022/05/14 13:11:51;;;;;;;3.50;2.20;;;19.20;99.90;;;;;;4993853;28;20472;-72
2022/05/14 13:14:24;;;;;;;7.40;2.77;;;19.10;99.90;;;;;;4994541;28;20534;-72
2022/05/14 13:16:56;;;;;;;5.87;2.57;;;19.10;99.90;;;;;;4990676;28;20517;-71
2022/05/14 13:19:31;;;;;;;4.90;1.90;;;19.10;99.90;;;;;;4994581;28;20467;-72
2022/05/14 13:21:58;;;;;;;2.73;2.53;;;19.20;99.90;;;;;;4994797;28;20470;-72
2022/05/14 13:24:28;;;;;;;2.60;1.80;;;19.00;99.90;;;;;;4993364;28;20586;-72
2022/05/14 13:26:57;;;;;;;1.73;1.67;;;19.10;99.90;;;;;;4994398;28;20892;-72
2022/05/14 13:29:27;;;;;;;4.30;2.33;;;19.10;99.90;;;;;;4994611;28;20470;-71
2022/05/14 13:32:10;;;;;;;3.53;2.40;;;19.20;99.90;;;;;;4994197;28;20471;-71
2022/05/14 13:37:31;;;;;;;5.60;2.60;;;19.20;99.90;;;;;;4994299;28;20958;-71
2022/05/14 13:40:02;;;;;;;6.57;2.17;;;19.30;99.90;;;;;;4992484;28;20486;-70
2022/05/14 13:42:33;;;;;;;7.97;1.97;;;19.30;99.90;;;;;;4993850;28;20950;-71
2022/05/14 13:45:06;;;;;;;4.90;2.50;;;19.50;99.90;;;;;;4993771;28;20541;-70
2022/05/14 13:47:34;;;;;;;1.93;1.73;;;19.50;99.90;;;;;;4992839;28;20792;-71
2022/05/14 13:50:02;;;;;;;2.30;1.83;;;19.60;99.90;;;;;;4976251;28;20539;-70
2022/05/14 13:52:33;;;;;;;6.17;1.60;;;19.60;99.90;;;;;;4992167;28;20459;-73
2022/05/14 13:55:09;;;;;;;6.93;2.33;;;19.50;99.90;;;;;;4992616;28;20545;-70
2022/05/14 13:57:37;;;;;;;2.70;1.53;;;19.50;99.90;;;;;;4994166;28;20813;-70
2022/05/14 14:00:12;;;;;;;2.10;1.70;;;19.50;99.90;;;;;;4993206;28;20537;-70
2022/05/14 14:02:40;;;;;;;1.70;1.60;;;19.60;99.90;;;;;;4993682;28;20467;-71
2022/05/14 14:05:10;;;;;;;3.80;1.90;;;19.60;99.90;;;;;;4993527;28;20485;-70
2022/05/14 14:07:39;;;;;;;6.87;2.00;;;19.50;99.90;;;;;;4993171;28;21026;-71
2022/05/14 14:10:12;;;;;;;4.50;2.03;;;19.40;99.90;;;;;;4992089;28;20467;-70
2022/05/14 14:12:39;;;;;;;2.07;1.87;;;19.30;99.90;;;;;;4993452;28;20470;-70
2022/05/14 14:15:07;;;;;;;2.33;1.60;;;19.20;99.90;;;;;;4993241;28;20494;-70
2022/05/14 14:17:35;;;;;;;2.10;1.30;;;19.10;99.90;;;;;;4993522;28;20459;-70
2022/05/14 14:20:03;;;;;;;2.70;1.47;;;19.00;99.90;;;;;;4993064;28;20490;-69
2022/05/14 14:22:30;;;;;;;4.10;2.20;;;19.10;99.90;;;;;;4993477;28;20490;-70
2022/05/14 14:24:56;;;;;;;4.10;1.90;;;19.30;99.90;;;;;;4992251;28;20561;-70
2022/05/14 14:27:26;;;;;;;2.50;1.80;;;19.20;99.90;;;;;;4988866;28;20463;-70
2022/05/14 14:29:57;;;;;;;6.93;2.40;;;19.30;99.90;;;;;;4992526;28;20999;-72
2022/05/14 14:32:24;;;;;;;2.37;2.10;;;19.30;99.90;;;;;;4993179;28;20470;-70
2022/05/14 14:34:53;;;;;;;2.13;1.90;;;19.30;99.90;;;;;;4992411;28;20501;-69
2022/05/14 14:37:20;;;;;;;2.97;1.53;;;19.10;99.90;;;;;;4993161;28;20466;-71
2022/05/14 14:39:50;;;;;;;4.60;2.30;;;19.00;99.90;;;;;;4991959;28;20464;-72
2022/05/14 14:42:17;;;;;;;2.83;1.87;;;19.10;99.90;;;;;;4993941;28;20466;-71
2022/05/14 14:44:44;;;;;;;9.30;2.73;;;19.20;99.90;;;;;;4993417;28;20487;-71
2022/05/14 14:47:11;;;;;;;3.30;2.30;;;19.10;99.90;;;;;;4993101;28;20836;-71
2022/05/14 14:49:38;;;;;;;3.00;2.40;;;19.00;99.90;;;;;;4992429;28;20471;-71
2022/05/14 14:52:07;;;;;;;3.87;2.13;;;18.90;99.90;;;;;;4992816;28;20505;-71
2022/05/14 14:54:34;;;;;;;3.80;2.47;;;18.90;99.90;;;;;;4992308;28;20553;-71
2022/05/14 14:57:01;;;;;;;2.63;2.10;;;18.90;99.90;;;;;;4991953;28;20466;-72
2022/05/14 14:59:27;;;;;;;9.47;2.50;;;18.90;99.90;;;;;;4992655;28;20470;-72
2022/05/14 15:02:00;;;;;;;6.00;2.27;;;19.00;99.90;;;;;;4992158;28;20993;-72
2022/05/14 15:04:31;;;;;;;2.70;2.10;;;19.10;99.90;;;;;;4993295;28;20537;-72
2022/05/14 15:06:58;;;;;;;3.30;1.90;;;19.30;99.90;;;;;;4992537;28;20553;-72
2022/05/14 15:09:26;;;;;;;3.30;2.07;;;19.20;99.90;;;;;;4992150;28;20490;-72
2022/05/14 15:11:53;;;;;;;4.23;2.03;;;19.20;99.90;;;;;;4991411;28;20517;-71
2022/05/14 15:14:23;;;;;;;4.47;2.30;;;19.10;99.90;;;;;;4971777;28;21031;-72
2022/05/14 15:16:49;;;;;;;4.00;2.50;;;19.10;99.90;;;;;;4966606;28;20531;-72
2022/05/14 15:19:16;;;;;;;6.80;2.70;;;19.20;99.90;;;;;;4972782;28;21012;-73
2022/05/14 15:21:43;;;;;;;3.83;2.00;;;19.10;99.90;;;;;;4972154;28;20463;-72
2022/05/14 15:24:09;;;;;;;5.97;2.43;;;19.10;99.90;;;;;;4966389;28;20526;-72
2022/05/14 15:26:38;;;;;;;4.10;2.50;;;19.20;99.90;;;;;;4972116;28;20463;-72
2022/05/14 15:29:04;;;;;;;3.40;2.20;;;19.30;99.90;;;;;;4953993;28;20480;-72
2022/05/14 15:31:49;;;;;;;3.10;1.97;;;19.20;99.90;;;;;;4966302;28;20587;-73
2022/05/14 15:34:17;;;;;;;4.03;1.70;;;19.40;99.90;;;;;;4967384;28;20482;-73
2022/05/14 15:36:44;;;;;;;3.13;2.20;;;19.30;99.90;;;;;;4956506;28;20468;-72
2022/05/14 15:39:12;;;;;;;2.93;1.73;;;19.30;99.90;;;;;;4952092;29;20887;-72
2022/05/14 15:41:43;;;;;;;2.40;1.50;;;19.40;99.90;;;;;;4965638;28;20459;-72
2022/05/14 15:44:14;;;;;;;2.70;2.23;;;19.40;99.90;;;;;;4964266;28;20464;-71
2022/05/14 15:46:46;;;;;;;2.43;1.57;;;19.50;99.90;;;;;;4968210;28;20878;-70
2022/05/14 15:49:17;;;;;;;2.03;1.70;;;19.50;99.90;;;;;;4963965;28;20456;-70
2022/05/14 15:51:44;;;;;;;3.93;1.70;;;19.60;99.90;;;;;;4979621;28;20940;-71
2022/05/14 15:54:11;;;;;;;6.37;1.67;;;19.60;99.90;;;;;;4972494;28;20459;-70
2022/05/14 15:56:42;;;;;;;3.13;1.60;;;19.60;99.90;;;;;;4972294;28;21038;-69
2022/05/14 15:59:09;;;;;;;3.37;2.50;;;19.40;99.90;;;;;;4957497;28;20515;-73
2022/05/14 16:01:35;;;;;;;5.47;3.50;;;19.20;99.90;;;;;;4952709;29;20837;-69
2022/05/14 16:04:03;;;;;;;2.23;1.73;;;19.20;99.90;;;;;;4953257;29;20465;-70
2022/05/14 16:06:31;;;;;;;2.27;1.90;;;19.20;99.90;;;;;;4952875;28;20476;-71
2022/05/14 16:08:59;;;;;;;5.70;1.90;;;19.20;99.90;;;;;;4963589;28;20478;-70
2022/05/14 16:16:56;;;;;;;1.90;1.73;;;19.40;99.90;;;;;;4961675;28;21217;-70
2022/05/14 16:19:23;;;;;;;1.50;1.40;;;19.50;99.90;;;;;;4969369;28;20463;-70
2022/05/14 16:21:50;;;;;;;3.50;1.43;;;19.40;99.90;;;;;;4965112;28;20983;-71
2022/05/14 16:24:17;;;;;;;1.33;1.23;;;19.30;99.40;;;;;;4951260;28;20551;-72
2022/05/14 16:26:44;;;;;;;4.00;1.40;;;19.20;99.50;;;;;;4954901;28;20451;-70
2022/05/14 16:29:14;;;;;;;1.90;1.60;;;19.20;99.80;;;;;;4969228;28;20526;-71
2022/05/14 16:31:41;;;;;;;1.33;1.17;;;19.20;99.90;;;;;;4969225;28;20468;-71
2022/05/14 16:34:08;;;;;;;2.67;1.50;;;19.30;99.90;;;;;;4969626;28;20475;-70
2022/05/14 16:36:36;;;;;;;2.33;1.73;;;19.20;99.90;;;;;;4969804;28;20495;-71
2022/05/14 16:39:04;;;;;;;4.63;1.37;;;19.20;99.90;;;;;;4969478;28;20463;-70
2022/05/14 16:41:31;;;;;;;3.53;1.67;;;19.10;99.90;;;;;;4969185;28;20471;-70
2022/05/14 16:43:58;;;;;;;2.30;1.77;;;18.90;99.90;;;;;;4971421;28;20499;-70
2022/05/14 16:46:26;;;;;;;1.63;1.23;;;18.90;99.90;;;;;;4971347;28;20492;-70
2022/05/14 16:48:52;;;;;;;3.07;1.37;;;18.90;99.90;;;;;;4962704;28;20472;-70
2022/05/14 16:51:19;;;;;;;2.03;1.93;;;18.90;99.70;;;;;;4958105;28;20475;-72
2022/05/14 16:53:46;;;;;;;1.47;1.37;;;18.90;99.50;;;;;;4962478;28;20854;-70
2022/05/14 16:56:15;;;;;;;2.60;1.43;;;18.90;98.90;;;;;;4950991;28;20922;-70
2022/05/14 16:58:44;;;;;;;1.63;1.47;;;18.90;99.00;;;;;;4982868;28;20495;-70
2022/05/14 17:01:11;;;;;;;3.40;1.10;;;18.90;98.60;;;;;;4992137;28;20553;-70
2022/05/14 17:03:40;;;;;;;2.43;1.47;;;18.90;98.50;;;;;;4973208;28;20986;-71
2022/05/14 17:06:07;;;;;;;4.83;1.97;;;18.80;98.70;;;;;;4963939;28;20480;-71
2022/05/14 17:08:34;;;;;;;7.47;2.20;;;18.80;98.90;;;;;;4990725;28;20472;-71
2022/05/14 17:11:01;;;;;;;5.40;2.10;;;18.80;99.10;;;;;;4991039;28;20470;-71
2022/05/14 17:13:27;;;;;;;2.40;1.33;;;18.80;99.00;;;;;;4992102;28;20582;-71
2022/05/14 17:15:54;;;;;;;2.97;2.77;;;18.80;99.40;;;;;;4978928;28;20587;-71
2022/05/14 17:18:21;;;;;;;3.07;2.80;;;18.80;99.40;;;;;;4953008;29;20476;-70
2022/05/14 17:20:52;;;;;;;2.03;1.93;;;18.70;99.20;;;;;;4968152;28;20472;-69
2022/05/14 17:23:19;;;;;;;1.70;1.60;;;18.60;99.20;;;;;;4972069;28;20474;-70
2022/05/14 17:25:46;;;;;;;2.40;1.70;;;18.50;99.20;;;;;;4971761;28;21064;-70
2022/05/14 17:28:13;;;;;;;2.83;1.70;;;18.50;99.00;;;;;;4971899;28;20479;-70